createdAt,value
2023-04-12T00:01:35.762Z,1.10
2023-04-12T00:04:06.937Z,1.40
2023-04-12T00:06:35.168Z,1.17
2023-04-12T00:09:05.369Z,1.15
2023-04-12T00:11:33.575Z,1.00
2023-04-12T00:14:01.531Z,1.12
2023-04-12T00:16:29.646Z,0.85
2023-04-12T00:18:58.744Z,1.02
2023-04-12T00:21:30.128Z,1.00
2023-04-12T00:23:58.526Z,0.85
2023-04-12T00:26:27.243Z,0.90
2023-04-12T00:28:55.075Z,0.80
2023-04-12T00:31:23.059Z,0.80
2023-04-12T00:33:51.041Z,1.08
2023-04-12T00:36:19.044Z,0.90
2023-04-12T00:38:47.537Z,1.00
2023-04-12T00:41:16.264Z,1.00
2023-04-12T00:43:44.259Z,0.93
2023-04-12T00:46:13.621Z,1.00
2023-04-12T00:48:42.045Z,0.95
2023-04-12T00:51:10.178Z,0.93
2023-04-12T00:53:39.502Z,0.90
2023-04-12T00:56:08.942Z,0.82
2023-04-12T00:58:37.163Z,1.20
2023-04-12T01:01:05.210Z,0.93
2023-04-12T01:03:33.201Z,0.95
2023-04-12T01:06:31.179Z,1.10
2023-04-12T01:09:12.704Z,0.70
2023-04-12T01:11:58.053Z,0.75
2023-04-12T01:14:52.543Z,0.90
2023-04-12T01:17:26.241Z,1.35
2023-04-12T01:20:14.959Z,1.00
2023-04-12T01:23:03.735Z,0.93
2023-04-12T01:25:49.199Z,1.10
2023-04-12T01:28:22.420Z,1.17
2023-04-12T01:30:53.146Z,1.48
2023-04-12T01:33:22.847Z,1.10
2023-04-12T01:35:52.940Z,1.12
2023-04-12T01:38:21.593Z,1.20
2023-04-12T01:40:49.839Z,1.50
2023-04-12T01:43:17.819Z,1.45
2023-04-12T01:45:45.911Z,1.33
2023-04-12T01:48:14.297Z,1.20
2023-04-12T01:50:51.202Z,0.85
2023-04-12T01:53:49.500Z,1.05
2023-04-12T01:56:20.309Z,1.00
2023-04-12T01:58:50.200Z,1.08
2023-04-12T02:01:20.465Z,0.85
2023-04-12T02:03:52.845Z,1.00
2023-04-12T02:06:23.940Z,1.00
2023-04-12T02:08:51.984Z,0.93
2023-04-12T02:11:19.946Z,1.15
2023-04-12T02:13:48.081Z,1.20
2023-04-12T02:16:16.103Z,1.15
2023-04-12T02:18:44.294Z,0.90
2023-04-12T02:21:12.463Z,1.30
2023-04-12T02:23:40.409Z,1.17
2023-04-12T02:26:08.461Z,1.60
2023-04-12T02:28:38.529Z,1.45
2023-04-12T02:31:07.980Z,1.90
2023-04-12T02:33:36.195Z,1.60
2023-04-12T02:36:04.164Z,1.67
2023-04-12T02:38:32.675Z,1.95
2023-04-12T02:41:00.578Z,1.95
2023-04-12T02:43:29.466Z,1.90
2023-04-12T02:45:57.367Z,2.12
2023-04-12T02:48:25.277Z,2.10
2023-04-12T02:50:53.102Z,1.92
2023-04-12T02:53:21.088Z,2.03
2023-04-12T02:55:49.537Z,1.90
2023-04-12T02:58:18.052Z,2.42
2023-04-12T03:00:47.248Z,2.30
2023-04-12T03:03:15.314Z,2.70
2023-04-12T03:05:43.935Z,2.40
2023-04-12T03:08:11.997Z,2.45
2023-04-12T03:10:39.915Z,2.58
2023-04-12T03:13:07.845Z,2.60
2023-04-12T03:15:35.731Z,2.40
2023-04-12T03:18:04.202Z,2.03
2023-04-12T03:20:32.192Z,2.45
2023-04-12T03:23:00.255Z,2.40
2023-04-12T03:25:28.496Z,2.17
2023-04-12T03:27:56.310Z,2.50
2023-04-12T03:30:24.338Z,2.20
2023-04-12T03:32:52.174Z,2.15
2023-04-12T03:35:20.278Z,2.50
2023-04-12T03:37:48.771Z,4.03
2023-04-12T03:40:16.847Z,2.22
2023-04-12T03:42:44.639Z,2.53
2023-04-12T03:45:13.503Z,2.72
2023-04-12T03:47:41.484Z,2.42
2023-04-12T03:50:12.048Z,2.35
2023-04-12T03:52:41.195Z,2.35
2023-04-12T03:55:09.573Z,2.60
2023-04-12T03:57:37.742Z,2.15
2023-04-12T04:00:06.154Z,2.10
2023-04-12T04:02:34.861Z,2.03
2023-04-12T04:05:05.359Z,2.35
2023-04-12T04:07:33.375Z,2.30
2023-04-12T04:10:01.494Z,2.20
2023-04-12T04:12:29.355Z,2.50
2023-04-12T04:14:57.338Z,2.28
2023-04-12T04:17:25.361Z,2.20
2023-04-12T04:19:53.248Z,2.28
2023-04-12T04:22:22.841Z,2.40
2023-04-12T04:24:51.536Z,2.60
2023-04-12T04:27:21.794Z,2.22
2023-04-12T04:29:49.765Z,1.85
2023-04-12T04:32:17.849Z,2.40
2023-04-12T04:34:46.066Z,2.33
2023-04-12T04:37:14.627Z,2.17
2023-04-12T04:39:42.417Z,2.37
2023-04-12T04:42:10.977Z,1.80
2023-04-12T04:44:38.903Z,2.28
2023-04-12T04:47:08.174Z,1.75
2023-04-12T04:49:38.314Z,2.05
2023-04-12T04:52:06.440Z,2.15
2023-04-12T04:54:34.506Z,1.90
2023-04-12T04:57:03.008Z,2.00
2023-04-12T04:59:30.993Z,1.80
2023-04-12T05:01:58.925Z,1.95
2023-04-12T05:04:27.019Z,1.77
2023-04-12T05:06:55.169Z,2.20
2023-04-12T05:09:23.212Z,1.92
2023-04-12T05:11:51.232Z,1.50
2023-04-12T05:14:19.388Z,1.73
2023-04-12T05:16:48.333Z,1.85
2023-04-12T05:19:16.244Z,1.98
2023-04-12T05:21:44.132Z,1.95
2023-04-12T05:24:12.091Z,1.73
2023-04-12T05:26:39.986Z,2.03
2023-04-12T05:29:07.840Z,1.87
2023-04-12T05:31:35.756Z,2.10
2023-04-12T05:34:03.618Z,2.08
2023-04-12T05:36:31.501Z,1.87
2023-04-12T05:38:59.355Z,2.17
2023-04-12T05:41:27.494Z,2.03
2023-04-12T05:43:55.383Z,2.00
2023-04-12T05:46:23.297Z,1.98
2023-04-12T05:48:51.191Z,1.70
2023-04-12T05:51:25.148Z,1.80
2023-04-12T05:53:55.844Z,1.92
2023-04-12T05:56:23.848Z,2.00
2023-04-12T05:58:52.469Z,1.75
2023-04-12T06:01:21.231Z,1.75
2023-04-12T06:03:49.658Z,2.10
2023-04-12T06:06:17.806Z,1.60
2023-04-12T06:08:45.691Z,1.50
2023-04-12T06:11:13.653Z,2.10
2023-04-12T06:13:41.804Z,1.90
2023-04-12T06:16:09.923Z,1.75
2023-04-12T06:18:37.804Z,2.00
2023-04-12T06:21:06.749Z,1.70
2023-04-12T06:23:34.753Z,1.80
2023-04-12T06:26:02.600Z,1.73
2023-04-12T06:28:30.478Z,2.03
2023-04-12T06:30:58.442Z,2.33
2023-04-12T06:33:26.388Z,1.65
2023-04-12T06:35:54.453Z,2.22
2023-04-12T06:38:22.460Z,1.77
2023-04-12T06:40:50.584Z,1.70
2023-04-12T06:43:20.520Z,2.20
2023-04-12T06:45:48.468Z,1.85
2023-04-12T06:48:16.450Z,1.80
2023-04-12T06:50:44.364Z,1.73
2023-04-12T06:53:14.756Z,1.62
2023-04-12T06:55:42.956Z,1.90
2023-04-12T06:58:11.636Z,2.05
2023-04-12T07:00:39.778Z,1.98
2023-04-12T07:03:07.956Z,1.83
2023-04-12T07:05:39.533Z,2.10
2023-04-12T07:08:07.556Z,2.20
2023-04-12T07:10:37.391Z,2.20
2023-04-12T07:13:08.555Z,2.20
2023-04-12T07:15:36.424Z,2.28
2023-04-12T07:18:04.390Z,2.35
2023-04-12T07:20:32.400Z,2.55
2023-04-12T07:23:00.302Z,2.30
2023-04-12T07:25:28.198Z,3.03
2023-04-12T07:27:56.103Z,2.50
2023-04-12T07:30:24.491Z,2.55
2023-04-12T07:32:52.665Z,2.75
2023-04-12T07:35:21.894Z,2.30
2023-04-12T07:37:49.833Z,2.67
2023-04-12T07:40:17.789Z,2.60
2023-04-12T07:42:45.732Z,2.42
2023-04-12T07:45:13.588Z,2.35
2023-04-12T07:47:41.647Z,2.58
2023-04-12T07:50:13.085Z,2.58
2023-04-12T07:52:41.164Z,2.12
2023-04-12T07:55:10.549Z,2.70
2023-04-12T07:57:39.488Z,2.58
2023-04-12T08:00:08.459Z,2.72
2023-04-12T08:02:36.562Z,2.50
2023-04-12T08:05:04.458Z,1.87
2023-04-12T08:07:32.485Z,1.80
2023-04-12T08:10:00.398Z,1.80
2023-04-12T08:12:28.537Z,1.87
2023-04-12T08:14:56.782Z,1.33
2023-04-12T08:17:24.749Z,1.10
2023-04-12T08:19:52.721Z,1.10
2023-04-12T08:22:20.820Z,0.90
2023-04-12T08:24:48.858Z,1.10
2023-04-12T08:27:18.639Z,1.48
2023-04-12T08:29:46.628Z,1.45
2023-04-12T08:32:14.557Z,2.20
2023-04-12T08:34:44.833Z,1.95
2023-04-12T08:37:14.023Z,2.65
2023-04-12T08:39:42.145Z,1.75
2023-04-12T08:42:10.377Z,1.87
2023-04-12T08:44:40.509Z,2.03
2023-04-12T08:47:11.022Z,1.87
2023-04-12T08:49:39.322Z,1.58
2023-04-12T08:52:09.204Z,1.48
2023-04-12T08:54:37.431Z,1.40
2023-04-12T08:57:07.974Z,1.25
2023-04-12T08:59:40.777Z,1.40
2023-04-12T09:02:08.898Z,1.40
2023-04-12T09:04:49.789Z,1.20
2023-04-12T09:07:18.515Z,1.50
2023-04-12T09:09:48.291Z,1.48
2023-04-12T09:12:17.129Z,1.42
2023-04-12T09:14:46.271Z,1.60
2023-04-12T09:17:27.805Z,1.60
2023-04-12T09:19:58.903Z,1.30
2023-04-12T09:22:37.513Z,1.20
2023-04-12T09:25:05.695Z,1.23
2023-04-12T09:27:53.525Z,1.20
2023-04-12T09:30:22.356Z,1.08
2023-04-12T09:32:54.826Z,1.40
2023-04-12T09:35:37.003Z,1.20
2023-04-12T09:38:14.519Z,1.37
2023-04-12T09:40:42.811Z,0.93
2023-04-12T09:43:10.999Z,0.98
2023-04-12T09:45:42.557Z,1.30
2023-04-12T09:48:20.615Z,1.05
2023-04-12T09:50:49.144Z,1.65
2023-04-12T09:53:19.777Z,1.42
2023-04-12T09:55:49.234Z,1.02
2023-04-12T09:58:21.471Z,1.20
2023-04-12T10:00:50.333Z,1.30
2023-04-12T10:03:20.187Z,1.20
2023-04-12T10:05:49.095Z,2.15
2023-04-12T10:08:19.163Z,1.15
2023-04-12T10:10:47.901Z,1.23
2023-04-12T10:13:17.269Z,1.30
2023-04-12T10:15:48.588Z,1.33
2023-04-12T10:18:19.473Z,1.40
2023-04-12T10:20:49.027Z,1.70
2023-04-12T10:23:18.062Z,1.52
2023-04-12T10:25:49.180Z,1.50
2023-04-12T10:28:22.933Z,1.62
2023-04-12T10:30:53.352Z,1.70
2023-04-12T10:33:27.879Z,1.52
2023-04-12T10:35:57.139Z,1.65
2023-04-12T10:38:28.141Z,1.40
2023-04-12T10:41:17.413Z,1.40
2023-04-12T10:43:49.528Z,1.50
2023-04-12T10:46:41.790Z,1.87
2023-04-12T10:49:11.092Z,1.80
2023-04-12T10:51:39.172Z,1.80
2023-04-12T10:54:10.079Z,1.75
2023-04-12T10:56:46.206Z,1.73
2023-04-12T10:59:17.906Z,1.92
2023-04-12T11:02:09.837Z,2.37
2023-04-12T11:04:38.498Z,2.20
2023-04-12T11:07:12.630Z,1.90
2023-04-12T11:09:43.653Z,2.12
2023-04-12T11:12:11.660Z,2.00
2023-04-12T11:14:45.922Z,2.00
2023-04-12T11:17:19.806Z,2.03
2023-04-12T11:19:53.725Z,1.90
2023-04-12T11:22:23.721Z,1.67
2023-04-12T11:24:54.557Z,1.62
2023-04-12T11:27:24.194Z,1.50
2023-04-12T11:30:01.152Z,1.27
2023-04-12T11:32:31.694Z,1.30
2023-04-12T11:35:00.141Z,1.62
2023-04-12T11:37:28.391Z,1.62
2023-04-12T11:39:58.794Z,1.50
2023-04-12T11:42:29.583Z,1.62
2023-04-12T11:45:03.116Z,1.23
2023-04-12T11:47:35.839Z,1.73
2023-04-12T11:50:03.722Z,1.60
2023-04-12T11:52:34.653Z,1.52
2023-04-12T11:55:06.469Z,1.70
2023-04-12T11:57:35.605Z,2.28
2023-04-12T12:00:07.552Z,2.10
2023-04-12T12:02:46.041Z,2.15
2023-04-12T12:05:21.531Z,1.52
2023-04-12T12:07:49.710Z,1.70
2023-04-12T12:10:32.533Z,1.83
2023-04-12T12:13:13.864Z,1.80
2023-04-12T12:15:46.370Z,1.20
2023-04-12T12:18:14.689Z,1.25
2023-04-12T12:20:50.652Z,1.15
2023-04-12T12:23:34.711Z,1.33
2023-04-12T12:26:14.813Z,1.23
2023-04-12T12:28:46.132Z,1.35
2023-04-12T12:31:14.152Z,1.10
2023-04-12T12:33:46.355Z,1.10
2023-04-12T12:36:18.457Z,0.90
2023-04-12T12:38:46.568Z,1.05
2023-04-12T12:41:19.593Z,1.10
2023-04-12T12:43:51.956Z,1.00
2023-04-12T12:46:21.399Z,1.10
2023-04-12T12:48:49.827Z,1.17
2023-04-12T12:51:21.651Z,1.00
2023-04-12T12:53:49.866Z,1.30
2023-04-12T12:56:17.841Z,1.08
2023-04-12T12:58:45.822Z,1.30
2023-04-12T13:01:13.725Z,1.45
2023-04-12T13:03:42.090Z,1.40
2023-04-12T13:06:10.534Z,1.58
2023-04-12T13:08:38.500Z,1.08
2023-04-12T13:11:07.783Z,1.23
2023-04-12T13:13:35.733Z,1.40
2023-04-12T13:16:03.872Z,1.27
2023-04-12T13:18:31.873Z,1.30
2023-04-12T13:20:59.862Z,1.30
2023-04-12T13:23:27.752Z,1.40
2023-04-12T13:25:55.677Z,1.15
2023-04-12T13:28:23.897Z,1.30
2023-04-12T13:30:51.864Z,1.27
2023-04-12T13:33:22.035Z,1.37
2023-04-12T13:35:50.601Z,1.40
2023-04-12T13:38:18.577Z,1.10
2023-04-12T13:40:46.657Z,1.37
2023-04-12T13:43:14.799Z,1.50
2023-04-12T13:45:42.863Z,1.58
2023-04-12T13:48:10.810Z,1.10
2023-04-12T13:50:38.790Z,1.40
2023-04-12T13:53:06.779Z,1.02
2023-04-12T13:55:34.766Z,1.37
2023-04-12T13:58:02.723Z,1.27
2023-04-12T14:00:30.681Z,1.00
2023-04-12T14:02:58.650Z,1.02
2023-04-12T14:05:26.860Z,0.98
2023-04-12T14:07:54.976Z,1.15
2023-04-12T14:10:22.939Z,1.10
2023-04-12T14:12:50.863Z,1.00
2023-04-12T14:15:19.087Z,0.70
2023-04-12T14:17:47.553Z,1.00
2023-04-12T14:20:18.772Z,1.02
2023-04-12T14:22:47.367Z,0.82
2023-04-12T14:25:15.257Z,1.15
2023-04-12T14:27:43.255Z,1.12
2023-04-12T14:30:11.300Z,1.20
2023-04-12T14:32:39.259Z,1.80
2023-04-12T14:35:07.420Z,0.90
2023-04-12T14:37:35.464Z,0.80
2023-04-12T14:40:03.610Z,0.90
2023-04-12T14:42:31.969Z,0.60
2023-04-12T14:44:59.892Z,0.90
2023-04-12T14:47:28.030Z,0.70
2023-04-12T14:49:55.953Z,0.73
2023-04-12T14:52:23.800Z,0.82
2023-04-12T14:54:51.687Z,1.00
2023-04-12T14:57:19.629Z,0.80
2023-04-12T14:59:47.548Z,0.80
2023-04-12T15:02:15.628Z,0.80
2023-04-12T15:04:43.687Z,0.90
2023-04-12T15:07:11.799Z,0.90
2023-04-12T15:09:39.846Z,0.80
2023-04-12T15:12:08.441Z,0.90
2023-04-12T15:14:36.420Z,1.23
2023-04-12T15:17:04.277Z,1.05
2023-04-12T15:19:32.954Z,1.50
2023-04-12T15:22:01.612Z,1.02
2023-04-12T15:24:29.687Z,1.10
2023-04-12T15:26:58.102Z,0.90
2023-04-12T15:29:28.094Z,1.08
2023-04-12T15:31:57.823Z,0.90
2023-04-12T15:34:26.546Z,0.88
2023-04-12T15:36:54.874Z,1.30
2023-04-12T15:39:22.923Z,1.50
2023-04-12T15:41:50.840Z,1.33
2023-04-12T15:44:18.834Z,1.10
2023-04-12T15:46:56.235Z,1.30
2023-04-12T15:49:33.029Z,0.90
2023-04-12T15:52:02.495Z,1.17
2023-04-12T15:54:30.355Z,1.17
2023-04-12T15:56:58.280Z,1.80
2023-04-12T15:59:27.917Z,1.92
2023-04-12T16:01:57.422Z,1.30
2023-04-12T16:04:25.577Z,1.30
2023-04-12T16:06:53.954Z,1.10
2023-04-12T16:09:23.612Z,1.10
2023-04-12T16:11:51.921Z,1.42
2023-04-12T16:14:19.821Z,1.30
2023-04-12T16:16:48.231Z,1.25
2023-04-12T16:19:16.127Z,1.42
2023-04-12T16:21:44.614Z,1.12
2023-04-12T16:24:12.758Z,1.05
2023-04-12T16:26:41.571Z,1.05
2023-04-12T16:29:10.096Z,0.90
2023-04-12T16:31:38.084Z,0.80
2023-04-12T16:34:06.081Z,0.82
2023-04-12T16:36:34.055Z,0.90
2023-04-12T16:39:04.829Z,1.23
2023-04-12T16:41:32.983Z,1.17
2023-04-12T16:44:02.790Z,1.17
2023-04-12T16:46:31.182Z,0.80
2023-04-12T16:49:00.390Z,0.70
2023-04-12T16:51:36.710Z,0.93
2023-04-12T16:54:05.488Z,1.00
2023-04-12T16:56:33.564Z,1.05
2023-04-12T16:59:01.575Z,1.40
2023-04-12T17:01:29.553Z,1.60
2023-04-12T17:03:57.714Z,1.40
2023-04-12T17:06:26.065Z,0.80
2023-04-12T17:08:53.958Z,0.70
2023-04-12T17:11:22.308Z,0.88
2023-04-12T17:13:51.722Z,1.17
2023-04-12T17:16:20.101Z,1.40
2023-04-12T17:18:48.123Z,1.10
2023-04-12T17:21:18.329Z,1.00
2023-04-12T17:23:46.262Z,1.05
2023-04-12T17:26:14.136Z,0.80
2023-04-12T17:28:42.893Z,0.90
2023-04-12T17:31:11.651Z,1.02
2023-04-12T17:33:39.532Z,1.00
2023-04-12T17:36:11.383Z,1.00
2023-04-12T17:38:39.471Z,0.95
2023-04-12T17:41:10.504Z,1.12
2023-04-12T17:43:38.509Z,1.20
2023-04-12T17:46:08.512Z,1.10
2023-04-12T17:48:37.224Z,0.90
2023-04-12T17:51:06.780Z,1.20
2023-04-12T17:53:34.816Z,1.00
2023-04-12T17:56:03.430Z,0.93
2023-04-12T17:58:31.678Z,1.10
2023-04-12T18:00:59.779Z,1.02
2023-04-12T18:03:28.740Z,0.90
2023-04-12T18:05:56.968Z,1.15
2023-04-12T18:08:26.287Z,1.30
2023-04-12T18:10:54.158Z,1.33
2023-04-12T18:13:22.128Z,1.00
2023-04-12T18:15:50.153Z,1.15
2023-04-12T18:18:18.063Z,1.37
2023-04-12T18:20:45.983Z,1.33
2023-04-12T18:23:13.873Z,1.40
2023-04-12T18:25:41.962Z,1.58
2023-04-12T18:28:09.849Z,1.30
2023-04-12T18:30:37.705Z,1.40
2023-04-12T18:33:05.965Z,1.52
2023-04-12T18:35:33.982Z,2.08
2023-04-12T18:38:01.910Z,1.67
2023-04-12T18:40:30.108Z,2.20
2023-04-12T18:42:58.052Z,2.10
2023-04-12T18:45:26.419Z,2.00
2023-04-12T18:47:54.397Z,2.00
2023-04-12T18:50:22.419Z,1.62
2023-04-12T18:52:50.529Z,1.40
2023-04-12T18:55:18.682Z,1.55
2023-04-12T18:57:48.834Z,1.30
2023-04-12T19:00:17.720Z,1.20
2023-04-12T19:02:45.687Z,0.60
2023-04-12T19:05:15.915Z,0.80
2023-04-12T19:07:43.798Z,0.70
2023-04-12T19:10:12.678Z,0.57
2023-04-12T19:12:40.765Z,0.50
2023-04-12T19:15:09.808Z,0.40
2023-04-12T19:17:40.823Z,0.60
2023-04-12T19:20:09.514Z,0.52
2023-04-12T19:22:37.678Z,0.43
2023-04-12T19:25:05.797Z,0.50
2023-04-12T19:27:34.473Z,0.50
2023-04-12T19:30:02.594Z,0.50
2023-04-12T19:32:30.676Z,0.60
2023-04-12T19:34:58.666Z,0.85
2023-04-12T19:37:26.537Z,1.33
2023-04-12T19:39:54.533Z,0.55
2023-04-12T19:42:23.138Z,0.68
2023-04-12T19:44:52.237Z,0.80
2023-04-12T19:47:20.266Z,0.73
2023-04-12T19:49:48.923Z,0.30
2023-04-12T19:52:21.356Z,0.60
2023-04-12T19:54:49.390Z,1.02
2023-04-12T19:57:17.334Z,0.70
2023-04-12T19:59:45.336Z,1.20
2023-04-12T20:02:13.581Z,0.95
2023-04-12T20:04:41.533Z,0.62
2023-04-12T20:07:09.355Z,1.40
2023-04-12T20:09:37.425Z,1.02
2023-04-12T20:12:07.979Z,1.10
2023-04-12T20:14:38.146Z,1.50
2023-04-12T20:17:07.309Z,1.50
2023-04-12T20:19:35.290Z,0.50
2023-04-12T20:22:03.198Z,0.68
2023-04-12T20:24:31.580Z,1.58
2023-04-12T20:26:59.438Z,1.55
2023-04-12T20:29:27.807Z,1.67
2023-04-12T20:31:57.028Z,1.20
2023-04-12T20:34:27.046Z,1.60
2023-04-12T20:36:56.780Z,0.98
2023-04-12T20:39:24.838Z,0.80
2023-04-12T20:41:52.887Z,0.73
2023-04-12T20:44:21.268Z,1.05
2023-04-12T20:46:50.276Z,0.80
2023-04-12T20:49:18.261Z,0.70
2023-04-12T20:51:49.904Z,0.50
2023-04-12T20:54:18.122Z,0.70
2023-04-12T20:56:46.428Z,0.80
2023-04-12T20:59:14.308Z,0.68
2023-04-12T21:01:44.527Z,1.50
2023-04-12T21:04:15.928Z,1.00
2023-04-12T21:06:45.198Z,0.80
2023-04-12T21:09:13.090Z,0.60
2023-04-12T21:11:42.749Z,0.57
2023-04-12T21:14:11.908Z,0.90
2023-04-12T21:16:40.126Z,0.80
2023-04-12T21:19:08.953Z,0.80
2023-04-12T21:21:39.600Z,1.05
2023-04-12T21:24:08.385Z,0.80
2023-04-12T21:26:36.774Z,0.70
2023-04-12T21:29:04.868Z,0.60
2023-04-12T21:31:33.718Z,0.68
2023-04-12T21:34:03.500Z,0.70
2023-04-12T21:36:31.842Z,0.60
2023-04-12T21:39:00.758Z,0.70
2023-04-12T21:41:30.880Z,0.70
2023-04-12T21:43:58.951Z,1.02
2023-04-12T21:46:28.736Z,0.80
2023-04-12T21:48:57.067Z,0.80
2023-04-12T21:51:26.621Z,1.20
2023-04-12T21:53:54.570Z,1.10
2023-04-12T21:56:22.512Z,0.95
2023-04-12T21:58:50.358Z,1.15
2023-04-12T22:01:18.316Z,0.98
2023-04-12T22:03:46.498Z,0.50
2023-04-12T22:06:14.569Z,0.50
2023-04-12T22:08:45.360Z,0.70
2023-04-12T22:11:13.368Z,0.35
2023-04-12T22:13:42.834Z,0.60
2023-04-12T22:16:14.698Z,0.60
2023-04-12T22:18:43.845Z,0.77
2023-04-12T22:21:13.630Z,0.40
2023-04-12T22:23:41.798Z,0.70
2023-04-12T22:26:11.365Z,0.65
2023-04-12T22:28:40.153Z,0.80
2023-04-12T22:31:09.746Z,0.65
2023-04-12T22:33:41.456Z,0.70
2023-04-12T22:36:09.953Z,0.57
2023-04-12T22:38:38.836Z,0.40
2023-04-12T22:41:07.754Z,0.40
2023-04-12T22:43:44.504Z,0.30
2023-04-12T22:46:19.961Z,0.30
2023-04-12T22:48:49.345Z,0.40
2023-04-12T22:51:17.931Z,0.30
2023-04-12T22:53:46.106Z,0.30
2023-04-12T22:56:14.916Z,0.40
2023-04-12T22:58:44.186Z,0.35
2023-04-12T23:01:12.235Z,0.40
2023-04-12T23:03:42.880Z,0.30
2023-04-12T23:06:13.995Z,0.22
2023-04-12T23:08:42.069Z,0.40
2023-04-12T23:11:09.968Z,0.37
2023-04-12T23:13:37.961Z,0.30
2023-04-12T23:16:09.082Z,0.40
2023-04-12T23:18:37.335Z,0.40
2023-04-12T23:21:05.422Z,0.20
2023-04-12T23:23:33.548Z,0.50
2023-04-12T23:26:02.247Z,0.50
2023-04-12T23:28:30.340Z,0.68
2023-04-12T23:30:59.163Z,0.37
2023-04-12T23:33:27.202Z,0.40
2023-04-12T23:35:57.296Z,0.47
2023-04-12T23:38:28.543Z,0.40
2023-04-12T23:40:56.476Z,0.40
2023-04-12T23:43:26.364Z,0.43
2023-04-12T23:45:54.650Z,0.40
2023-04-12T23:48:23.134Z,0.35
2023-04-12T23:50:51.827Z,0.40
2023-04-12T23:53:20.804Z,0.40
2023-04-12T23:55:50.809Z,0.40
2023-04-12T23:58:19.712Z,0.40
